Portada
METAR-TAF:

METAR-TAF

Aeropuertos :

Aeropuerto Internacional de Uzhgorod

Úzhgorod, Ucrania

latitud: 48-38-05N, longitud: 022-15-53E, altitud: 117 m

Observación

El informe se hizo hace 10 horas y 1 minutos, a las 15:00 UTC
Viento 4 kt del sureste, variando entre este-noreste y suroeste
Temperatura 23°C
Humedad 57%
Presión 1008 hPa
Visibilidad 10 km o más

METAR: UKLU 061500Z 13002MPS 060V230 9999 NSC 23/14 Q1008 R10/290160 NOSIG

Hora: 04:01 (01:01 UTC)

Pronóstico

El informe se hizo hace 11 horas y 0 minutos, a las 14:01 UTC
Pronóstico válido del 06 a las 15 UTC al 06 a las 24 UTC
Viento 8 kt del este-sureste
Visibilidad 10 km o más
Nubes dispersas a una altura de 2000 ft, Cumulonimbus.
Cielo nuboso a una altura de 3000 ft

TAF: UKLU 061401Z 0615/0624 12004MPS 9999 SCT020CB BKN030

Observaciones y pronósticos meteorológicos de más de 4000 aeropuertos (mensajes METAR y TAF).

Los puntos amarillos y rojos representan las estaciones disponibles.

Ponga el ratón en el punto deseado para ver el nombre de la estación.

Haga clic para ver las observaciones y los pronósticos meteorológicos.

Para cambiar el mapa : haga clic en los botones verdes con una cruz de color negro para hacer un zoom, en el botón verde con un guión para alejar o en las flechas verdes para mapas adyacentes.


METAR-TAF: